Terminal Aerodrome Forecast
Issued by NWS Grand Forks, ND

Home | Current Version | Previous Version | Text Only | Print | Product List | Glossary On
Versions: 1 2 3 4 5 6 7 8 9 10 11 12 13 14 15 16 17 18 19 20 21 22 23 24 25
546
FTUS43 KFGF 231908 AAG
TAFGFK
TAF AMD
KGFK 231908Z 2319/2418 16015KT P6SM OVC006
     FM232100 19015KT P6SM SCT010
     FM240300 21009KT P6SM SCT250
     FM241200 24011KT P6SM OVC035
     FM241400 27012KT P6SM BKN060=

USA.gov is the U.S. government's official web portal to all federal, state and local government web resources and services.